Time;durP1;ratioP1;P1;durP2;ratioP2;P2;SDS_P1;SDS_P2;PMS_P1;PMS_P2;Temp;Humidity;BMP_temperature;BMP_pressure;BME280_temperature;BME280_humidity;BME280_pressure;Samples;Min_cycle;Max_cycle;Signal;HPM_P1;HPM_P2
2022/07/28 05:00:12;;;;;;;3.17;2.13;;;21.30;97.20;;;;;;1701347;29;20242;-75
2022/07/28 05:01:03;;;;;;;3.50;2.55;;;21.40;97.20;;;;;;1701359;29;20214;-74
2022/07/28 05:01:56;;;;;;;3.80;2.30;;;21.40;97.20;;;;;;1701309;29;20199;-75
2022/07/28 05:02:47;;;;;;;4.43;2.38;;;21.40;97.20;;;;;;1701336;29;20207;-75
2022/07/28 05:03:39;;;;;;;3.63;2.40;;;21.40;97.20;;;;;;1701304;29;20682;-75
2022/07/28 05:04:30;;;;;;;3.60;2.55;;;21.40;97.20;;;;;;1701208;29;20203;-73
2022/07/28 05:05:22;;;;;;;2.70;2.33;;;21.40;97.20;;;;;;1701324;29;20237;-74
2022/07/28 05:06:13;;;;;;;5.13;2.95;;;21.40;97.20;;;;;;1701171;29;20199;-74
2022/07/28 05:07:05;;;;;;;4.90;2.30;;;21.40;97.20;;;;;;1701009;29;20227;-74
2022/07/28 05:07:56;;;;;;;3.67;1.75;;;21.40;97.20;;;;;;1701237;29;20462;-74
2022/07/28 05:08:48;;;;;;;4.37;2.23;;;21.40;97.20;;;;;;1701390;29;20202;-75
2022/07/28 05:09:39;;;;;;;4.03;2.30;;;21.40;97.20;;;;;;1701245;29;20469;-74
2022/07/28 05:10:31;;;;;;;2.40;2.07;;;21.40;97.20;;;;;;1701356;29;20229;-74
2022/07/28 05:11:22;;;;;;;2.90;2.10;;;21.50;97.20;;;;;;1701308;29;20207;-74
2022/07/28 05:12:13;;;;;;;3.23;2.10;;;21.50;97.20;;;;;;1705289;29;20199;-74
2022/07/28 05:13:06;;;;;;;3.30;2.17;;;21.50;97.20;;;;;;1707795;29;20509;-75
2022/07/28 05:13:57;;;;;;;4.75;2.20;;;21.40;97.20;;;;;;1707877;28;20671;-74
2022/07/28 05:14:48;;;;;;;3.43;1.80;;;21.50;97.20;;;;;;1707974;29;20554;-74
2022/07/28 05:15:40;;;;;;;3.63;2.10;;;21.50;97.20;;;;;;1707679;29;20346;-74
2022/07/28 05:16:32;;;;;;;3.25;2.10;;;21.50;97.20;;;;;;1694479;29;20220;-74
2022/07/28 05:17:23;;;;;;;2.95;2.03;;;21.50;97.20;;;;;;1694691;29;20215;-74
2022/07/28 05:18:15;;;;;;;5.03;2.60;;;21.50;97.20;;;;;;1694747;29;20231;-74
2022/07/28 05:19:06;;;;;;;4.05;2.55;;;21.50;97.20;;;;;;1694610;29;20204;-74
2022/07/28 05:19:58;;;;;;;4.55;2.08;;;21.50;97.20;;;;;;1694759;29;20204;-75
2022/07/28 05:20:49;;;;;;;2.75;2.00;;;21.50;97.20;;;;;;1694697;29;20693;-74
2022/07/28 05:21:41;;;;;;;3.40;2.10;;;21.50;97.20;;;;;;1694695;29;20706;-74
2022/07/28 05:22:41;;;;;;;2.75;2.33;;;21.50;97.20;;;;;;1694606;29;20207;-74
2022/07/28 05:23:33;;;;;;;2.47;2.10;;;21.50;97.20;;;;;;1694661;29;20582;-74
2022/07/28 05:24:23;;;;;;;2.25;2.05;;;21.60;97.20;;;;;;1694730;29;20231;-75
2022/07/28 05:25:17;;;;;;;5.70;2.63;;;21.60;97.20;;;;;;1694644;29;20286;-74
2022/07/28 05:26:07;;;;;;;3.13;2.15;;;21.60;97.20;;;;;;1694490;29;20455;-74
2022/07/28 05:26:59;;;;;;;5.13;2.57;;;21.60;97.20;;;;;;1694278;29;20204;-74
2022/07/28 05:27:51;;;;;;;5.05;2.25;;;21.60;97.20;;;;;;1696338;29;20235;-74
2022/07/28 05:28:43;;;;;;;5.38;2.95;;;21.60;97.20;;;;;;1701296;29;20686;-74
2022/07/28 05:29:37;;;;;;;4.20;2.30;;;21.60;97.20;;;;;;1707585;29;20206;-74
2022/07/28 05:30:29;;;;;;;3.95;2.15;;;21.60;97.20;;;;;;1707841;29;20222;-74
2022/07/28 05:31:21;;;;;;;4.35;2.70;;;21.70;97.20;;;;;;1707696;29;20662;-74
2022/07/28 05:32:13;;;;;;;7.10;2.88;;;21.70;97.20;;;;;;1707040;28;20659;-74
2022/07/28 05:33:04;;;;;;;3.95;2.00;;;21.70;97.20;;;;;;1704830;29;20218;-75
2022/07/28 05:33:55;;;;;;;3.37;2.40;;;21.70;97.20;;;;;;1701140;29;20191;-74
2022/07/28 05:34:46;;;;;;;3.83;2.65;;;21.70;97.20;;;;;;1701130;29;20203;-74
2022/07/28 05:35:38;;;;;;;4.87;2.70;;;21.80;97.20;;;;;;1701136;29;20295;-75
2022/07/28 05:36:29;;;;;;;5.15;2.35;;;21.80;97.20;;;;;;1700940;29;20223;-74
2022/07/28 05:37:20;;;;;;;2.30;2.10;;;21.80;97.20;;;;;;1700738;29;20202;-74
2022/07/28 05:38:12;;;;;;;3.50;2.55;;;21.80;97.20;;;;;;1701027;29;20211;-74
2022/07/28 05:39:03;;;;;;;4.30;2.85;;;21.80;97.20;;;;;;1701075;29;20199;-74
2022/07/28 05:39:54;;;;;;;4.10;2.65;;;21.80;97.20;;;;;;1701068;29;20208;-73
2022/07/28 05:40:47;;;;;;;4.97;2.50;;;21.90;97.20;;;;;;1701120;29;20209;-74
2022/07/28 05:41:38;;;;;;;4.47;2.30;;;21.90;97.20;;;;;;1701070;29;20214;-74
2022/07/28 05:42:34;;;;;;;5.33;2.57;;;21.90;97.20;;;;;;1701044;29;20287;-74
2022/07/28 05:43:26;;;;;;;4.45;2.40;;;21.90;97.20;;;;;;1705350;29;20247;-74
2022/07/28 05:44:17;;;;;;;4.55;2.90;;;21.90;97.20;;;;;;1707639;29;20588;-74
2022/07/28 05:45:09;;;;;;;4.33;2.67;;;21.90;97.20;;;;;;1707666;29;20641;-74
2022/07/28 05:46:00;;;;;;;5.78;3.30;;;21.90;97.20;;;;;;1707497;29;20217;-74
2022/07/28 05:46:53;;;;;;;6.83;3.10;;;21.90;97.20;;;;;;1707366;29;20250;-74
2022/07/28 05:47:46;;;;;;;4.03;3.30;;;21.90;97.20;;;;;;1707476;29;20485;-75
2022/07/28 05:48:37;;;;;;;4.35;2.67;;;21.90;97.20;;;;;;1707764;29;20206;-75
2022/07/28 05:49:28;;;;;;;3.55;2.85;;;21.90;97.20;;;;;;1707568;29;20214;-74
2022/07/28 05:50:22;;;;;;;4.18;3.00;;;21.90;97.20;;;;;;1707632;29;20227;-74
2022/07/28 05:51:13;;;;;;;3.25;2.85;;;21.90;97.20;;;;;;1707721;29;20230;-75
2022/07/28 05:52:05;;;;;;;2.83;2.53;;;21.90;97.20;;;;;;1707670;29;20206;-74
2022/07/28 05:52:56;;;;;;;5.55;2.90;;;21.90;97.20;;;;;;1707538;29;20681;-74
2022/07/28 05:53:48;;;;;;;3.67;3.37;;;21.90;97.20;;;;;;1707590;29;20545;-74
2022/07/28 05:54:39;;;;;;;4.43;3.35;;;21.90;97.20;;;;;;1707547;29;20698;-74
2022/07/28 05:55:31;;;;;;;4.87;3.40;;;21.90;97.20;;;;;;1707678;29;20633;-74
2022/07/28 05:57:16;;;;;;;6.15;3.55;;;21.90;97.20;;;;;;1725274;23;20321;-74
2022/07/28 05:58:07;;;;;;;6.68;3.70;;;21.90;97.20;;;;;;1707428;29;20230;-74
2022/07/28 05:58:59;;;;;;;3.30;2.97;;;21.90;97.20;;;;;;1707569;28;20203;-73
2022/07/28 05:59:49;;;;;;;6.28;3.22;;;22.00;97.20;;;;;;1708582;28;20199;-73
2022/07/28 06:00:41;;;;;;;4.70;3.30;;;22.00;97.20;;;;;;1707638;28;20689;-74
2022/07/28 06:01:35;;;;;;;3.78;3.20;;;22.00;97.20;;;;;;1707567;28;20667;-73
2022/07/28 06:02:28;;;;;;;4.20;3.33;;;22.00;97.20;;;;;;1707526;28;20253;-74
2022/07/28 06:03:19;;;;;;;4.90;3.60;;;22.00;97.20;;;;;;1707528;28;20663;-73
2022/07/28 06:04:11;;;;;;;6.43;3.20;;;22.00;97.20;;;;;;1707560;28;20582;-73
2022/07/28 06:05:02;;;;;;;3.53;3.15;;;22.00;97.20;;;;;;1707545;28;20207;-73
2022/07/28 06:05:54;;;;;;;6.33;3.90;;;22.00;97.20;;;;;;1707524;28;20235;-73
2022/07/28 06:06:45;;;;;;;4.32;3.47;;;22.00;97.20;;;;;;1707262;28;20560;-73
2022/07/28 06:07:37;;;;;;;5.03;3.67;;;22.10;97.20;;;;;;1707415;28;20229;-73
2022/07/28 06:08:28;;;;;;;5.97;3.60;;;22.10;97.20;;;;;;1707509;28;20213;-73
2022/07/28 06:09:20;;;;;;;7.03;3.78;;;22.10;97.20;;;;;;1707445;28;20198;-73
2022/07/28 06:10:12;;;;;;;3.75;3.45;;;22.10;97.20;;;;;;1707474;28;20228;-73
2022/07/28 06:11:10;;;;;;;4.90;3.90;;;22.10;97.20;;;;;;1707492;28;20269;-73
2022/07/28 06:12:00;;;;;;;9.07;3.42;;;22.10;97.20;;;;;;1707518;28;20215;-73
2022/07/28 06:12:54;;;;;;;9.00;4.00;;;22.20;97.20;;;;;;1707436;28;20238;-73
2022/07/28 06:13:45;;;;;;;4.13;3.72;;;22.20;97.20;;;;;;1707241;28;20217;-74
2022/07/28 06:14:37;;;;;;;4.63;4.13;;;22.20;97.20;;;;;;1707469;28;20294;-73
2022/07/28 06:15:28;;;;;;;3.72;3.20;;;22.20;97.20;;;;;;1707432;28;20438;-73
2022/07/28 06:16:21;;;;;;;5.50;4.10;;;22.20;97.20;;;;;;1707394;28;20209;-73
2022/07/28 06:17:13;;;;;;;5.38;3.83;;;22.20;97.20;;;;;;1707120;28;20229;-74
2022/07/28 06:18:07;;;;;;;4.35;3.90;;;22.20;97.20;;;;;;1707457;28;20218;-74
2022/07/28 06:18:58;;;;;;;6.45;4.70;;;22.20;97.20;;;;;;1707430;28;20207;-73
2022/07/28 06:19:49;;;;;;;5.27;3.70;;;22.20;97.20;;;;;;1707505;28;20293;-73
2022/07/28 06:20:40;;;;;;;4.72;4.13;;;22.20;97.20;;;;;;1707493;28;20934;-73
2022/07/28 06:21:32;;;;;;;4.80;4.40;;;22.30;97.20;;;;;;1707415;28;20642;-73
2022/07/28 06:22:23;;;;;;;6.97;4.03;;;22.30;97.20;;;;;;1707486;28;20689;-73
2022/07/28 06:23:17;;;;;;;4.40;4.00;;;22.30;97.20;;;;;;1707351;28;20628;-74
2022/07/28 06:24:08;;;;;;;4.57;4.18;;;22.30;97.20;;;;;;1707443;28;20290;-73
2022/07/28 06:25:00;;;;;;;9.20;3.95;;;22.30;97.20;;;;;;1707405;28;20209;-73
2022/07/28 06:25:51;;;;;;;10.02;4.30;;;22.30;97.20;;;;;;1707433;28;20210;-73
2022/07/28 06:26:43;;;;;;;5.90;4.50;;;22.40;97.20;;;;;;1707110;28;20209;-73
2022/07/28 06:27:33;;;;;;;4.63;4.22;;;22.40;97.20;;;;;;1707394;28;20202;-73
2022/07/28 06:28:25;;;;;;;5.57;4.47;;;22.40;97.20;;;;;;1707419;28;20195;-74
2022/07/28 06:29:17;;;;;;;9.52;4.47;;;22.40;97.20;;;;;;1707096;28;20211;-74
2022/07/28 06:30:10;;;;;;;9.00;4.50;;;22.50;97.20;;;;;;1707279;28;20206;-73
2022/07/28 06:31:00;;;;;;;5.78;4.28;;;22.50;97.20;;;;;;1707369;28;20254;-73
2022/07/28 06:31:52;;;;;;;5.90;4.33;;;22.50;97.20;;;;;;1707218;28;20213;-73
2022/07/28 06:32:44;;;;;;;4.30;3.90;;;22.50;97.20;;;;;;1707481;28;20578;-74
2022/07/28 06:33:37;;;;;;;5.22;3.85;;;22.50;97.20;;;;;;1707343;28;20203;-73
2022/07/28 06:34:28;;;;;;;6.43;4.30;;;22.60;97.20;;;;;;1707350;28;20203;-73
2022/07/28 06:35:20;;;;;;;5.23;4.80;;;22.60;97.20;;;;;;1707387;28;20202;-73
2022/07/28 06:36:11;;;;;;;9.57;5.30;;;22.60;97.20;;;;;;1707282;28;20202;-74
2022/07/28 06:37:04;;;;;;;6.05;4.82;;;22.60;97.20;;;;;;1707084;28;20237;-73
2022/07/28 06:37:55;;;;;;;5.70;4.43;;;22.60;97.20;;;;;;1707384;28;20293;-73
2022/07/28 06:38:46;;;;;;;4.80;4.30;;;22.60;97.20;;;;;;1707368;28;20211;-73
2022/07/28 06:39:38;;;;;;;8.93;4.83;;;22.70;97.20;;;;;;1707366;28;20726;-73
2022/07/28 06:40:30;;;;;;;5.20;4.53;;;22.70;97.20;;;;;;1707385;28;20706;-73
2022/07/28 06:41:22;;;;;;;5.43;4.15;;;22.70;97.20;;;;;;1707342;28;20682;-74
2022/07/28 06:42:12;;;;;;;5.78;4.82;;;22.70;97.20;;;;;;1707395;28;20211;-74
2022/07/28 06:43:04;;;;;;;6.30;4.83;;;22.80;97.20;;;;;;1707274;28;20301;-73
2022/07/28 06:43:55;;;;;;;4.78;4.30;;;22.80;97.20;;;;;;1707396;28;20218;-73
2022/07/28 06:44:47;;;;;;;6.20;4.30;;;22.80;97.20;;;;;;1707292;28;20322;-73
2022/07/28 06:45:39;;;;;;;5.60;5.10;;;22.80;97.20;;;;;;1707329;28;20213;-74
2022/07/28 06:46:31;;;;;;;8.45;5.30;;;22.80;97.20;;;;;;1706878;28;20614;-74
2022/07/28 06:47:22;;;;;;;6.50;5.00;;;22.80;97.20;;;;;;1706902;28;20250;-74
2022/07/28 06:48:13;;;;;;;6.70;4.60;;;22.90;97.20;;;;;;1707301;28;20222;-74
2022/07/28 06:49:05;;;;;;;5.20;4.28;;;22.90;97.20;;;;;;1707299;28;20225;-74
2022/07/28 06:49:57;;;;;;;5.72;4.72;;;22.90;97.20;;;;;;1707330;28;20705;-73
2022/07/28 06:50:48;;;;;;;6.35;5.40;;;22.90;97.20;;;;;;1707338;28;20218;-73
2022/07/28 06:51:40;;;;;;;6.73;5.47;;;22.90;97.20;;;;;;1707303;28;20293;-73
2022/07/28 06:52:31;;;;;;;7.68;5.57;;;22.90;97.20;;;;;;1707294;28;20213;-73
2022/07/28 06:53:23;;;;;;;4.63;4.22;;;23.00;97.20;;;;;;1707283;28;20201;-75
2022/07/28 06:54:13;;;;;;;5.25;4.72;;;23.00;97.20;;;;;;1707333;28;20318;-73
2022/07/28 06:55:06;;;;;;;5.93;5.30;;;23.00;97.20;;;;;;1707350;28;20202;-73
2022/07/28 06:55:57;;;;;;;5.85;4.85;;;23.00;97.20;;;;;;1707264;28;20666;-73
2022/07/28 06:56:49;;;;;;;6.33;5.37;;;23.00;97.20;;;;;;1706924;28;21104;-73
2022/07/28 06:57:39;;;;;;;6.28;5.43;;;23.00;97.20;;;;;;1707223;28;20206;-74
2022/07/28 06:58:31;;;;;;;6.70;5.63;;;23.10;97.20;;;;;;1707178;28;20304;-73
2022/07/28 06:59:22;;;;;;;5.47;4.97;;;23.10;97.20;;;;;;1707261;28;20206;-74
2022/07/28 07:00:14;;;;;;;6.77;5.33;;;23.10;97.20;;;;;;1707277;28;20199;-73
2022/07/28 07:01:06;;;;;;;7.88;5.20;;;23.10;97.20;;;;;;1707332;28;20986;-73
2022/07/28 07:02:00;;;;;;;5.82;4.88;;;23.10;97.20;;;;;;1707328;28;20637;-73
2022/07/28 07:02:51;;;;;;;6.05;4.97;;;23.20;97.20;;;;;;1706953;28;20206;-73
2022/07/28 07:03:43;;;;;;;5.70;4.50;;;23.20;97.20;;;;;;1707248;28;20206;-74
2022/07/28 07:04:35;;;;;;;5.82;5.00;;;23.20;97.20;;;;;;1707200;28;20207;-74
2022/07/28 07:05:30;;;;;;;5.30;4.80;;;23.20;97.20;;;;;;1707306;28;20210;-74
2022/07/28 07:06:21;;;;;;;7.53;5.13;;;23.20;97.20;;;;;;1707351;28;20203;-74
2022/07/28 07:07:13;;;;;;;5.63;5.13;;;23.20;97.20;;;;;;1706875;28;20476;-74
2022/07/28 07:08:04;;;;;;;4.93;4.50;;;23.30;97.20;;;;;;1707168;28;20226;-74
2022/07/28 07:08:56;;;;;;;5.22;4.80;;;23.30;97.20;;;;;;1707311;28;20213;-73
2022/07/28 07:09:46;;;;;;;20.25;5.85;;;23.30;97.20;;;;;;1707592;28;20207;-73
2022/07/28 07:10:38;;;;;;;5.70;4.90;;;23.30;97.20;;;;;;1710648;28;20297;-73
2022/07/28 07:11:29;;;;;;;5.07;4.63;;;23.30;97.20;;;;;;1710071;28;20195;-74
2022/07/28 07:12:21;;;;;;;6.13;4.10;;;23.40;97.20;;;;;;1710123;28;20481;-73
2022/07/28 07:13:11;;;;;;;6.53;4.72;;;23.40;97.20;;;;;;1709338;28;20222;-73
2022/07/28 07:14:03;;;;;;;8.00;5.47;;;23.40;97.20;;;;;;1707187;28;20234;-74
2022/07/28 07:14:54;;;;;;;7.32;5.43;;;23.50;97.20;;;;;;1707208;28;20214;-74
2022/07/28 07:15:46;;;;;;;6.67;5.40;;;23.50;97.20;;;;;;1707301;28;20321;-73
2022/07/28 07:16:37;;;;;;;6.80;5.35;;;23.50;97.20;;;;;;1706930;28;20575;-73
2022/07/28 07:17:28;;;;;;;5.63;5.00;;;23.50;97.20;;;;;;1707263;28;20290;-73
2022/07/28 07:18:19;;;;;;;6.35;5.75;;;23.50;97.20;;;;;;1707164;28;20568;-73
2022/07/28 07:19:11;;;;;;;9.20;4.90;;;23.50;97.20;;;;;;1706935;28;20317;-74
2022/07/28 07:20:04;;;;;;;6.07;5.47;;;23.50;97.20;;;;;;1707214;28;20207;-74
2022/07/28 07:20:57;;;;;;;6.45;5.55;;;23.60;97.20;;;;;;1707224;28;20627;-73
2022/07/28 07:21:48;;;;;;;5.30;4.80;;;23.60;97.20;;;;;;1707227;28;20213;-74
2022/07/28 07:22:44;;;;;;;6.53;4.70;;;23.60;97.20;;;;;;1707248;28;20202;-74
2022/07/28 07:23:35;;;;;;;6.45;5.50;;;23.60;97.20;;;;;;1707148;28;20218;-73
2022/07/28 07:24:26;;;;;;;6.27;5.67;;;23.60;97.20;;;;;;1707232;28;20202;-74
2022/07/28 07:25:18;;;;;;;5.72;5.10;;;23.70;97.20;;;;;;1707199;28;20810;-74
2022/07/28 07:26:09;;;;;;;7.53;5.75;;;23.70;97.20;;;;;;1707243;28;20211;-74
2022/07/28 07:27:00;;;;;;;5.55;4.68;;;23.70;97.20;;;;;;1706834;28;20230;-74
2022/07/28 07:27:52;;;;;;;6.30;5.70;;;23.70;97.20;;;;;;1707044;28;20289;-74
2022/07/28 07:28:43;;;;;;;7.72;5.28;;;23.80;97.20;;;;;;1707190;28;20841;-74
2022/07/28 07:29:35;;;;;;;5.37;4.83;;;23.80;97.20;;;;;;1707101;28;20667;-73
2022/07/28 07:30:25;;;;;;;5.78;5.28;;;23.80;97.20;;;;;;1707275;28;20209;-74
2022/07/28 07:31:17;;;;;;;5.87;5.37;;;23.90;97.20;;;;;;1707157;28;20241;-73
2022/07/28 07:32:08;;;;;;;6.15;5.18;;;23.90;97.20;;;;;;1707194;28;20450;-73
2022/07/28 07:33:00;;;;;;;5.73;5.00;;;23.90;97.20;;;;;;1707100;28;20293;-73
2022/07/28 07:33:50;;;;;;;5.85;5.00;;;23.90;97.20;;;;;;1707200;28;20206;-73
2022/07/28 07:34:42;;;;;;;6.17;5.00;;;23.90;97.20;;;;;;1707275;28;20297;-74
2022/07/28 07:35:36;;;;;;;7.25;5.57;;;24.00;97.20;;;;;;1706977;28;20670;-74
2022/07/28 07:36:28;;;;;;;8.73;5.78;;;24.00;97.20;;;;;;1702566;29;20203;-73
2022/07/28 07:37:20;;;;;;;5.75;5.22;;;24.00;97.20;;;;;;1706895;28;20782;-73
2022/07/28 07:38:11;;;;;;;8.98;6.07;;;24.00;97.20;;;;;;1707032;28;20245;-73
2022/07/28 07:39:02;;;;;;;7.10;5.93;;;24.00;97.20;;;;;;1707254;28;20207;-73
2022/07/28 07:39:54;;;;;;;6.17;5.20;;;24.00;97.20;;;;;;1707141;28;20710;-74
2022/07/28 07:40:45;;;;;;;9.10;5.53;;;24.00;97.20;;;;;;1707241;28;20824;-74
2022/07/28 07:41:37;;;;;;;9.00;5.97;;;24.10;97.20;;;;;;1707188;28;20568;-74
2022/07/28 07:42:28;;;;;;;5.43;4.93;;;24.10;97.20;;;;;;1707268;28;20442;-74
2022/07/28 07:43:19;;;;;;;7.40;5.90;;;24.10;97.20;;;;;;1707065;28;20230;-74
2022/07/28 07:44:10;;;;;;;7.53;5.93;;;24.10;97.20;;;;;;1707171;28;20946;-74
2022/07/28 07:45:02;;;;;;;7.37;6.03;;;24.10;97.20;;;;;;1707186;28;20709;-73
2022/07/28 07:45:53;;;;;;;5.72;5.22;;;24.10;97.20;;;;;;1707037;28;20202;-73
2022/07/28 07:46:45;;;;;;;6.07;5.47;;;24.10;97.20;;;;;;1706900;28;20298;-73
2022/07/28 07:47:36;;;;;;;6.40;5.60;;;24.10;97.20;;;;;;1707104;28;20225;-73
2022/07/28 07:48:27;;;;;;;6.87;6.27;;;24.10;97.20;;;;;;1707094;28;20321;-73
2022/07/28 07:49:18;;;;;;;6.87;6.23;;;24.10;97.20;;;;;;1707155;28;20210;-74
2022/07/28 07:50:10;;;;;;;6.77;6.10;;;24.10;97.20;;;;;;1707199;28;20529;-74
2022/07/28 07:51:02;;;;;;;6.85;5.63;;;24.10;97.20;;;;;;1707132;28;20587;-73
2022/07/28 07:51:54;;;;;;;6.47;5.87;;;24.00;97.20;;;;;;1706846;28;20222;-73
2022/07/28 07:52:45;;;;;;;6.05;5.50;;;24.00;97.20;;;;;;1707204;28;20453;-73
2022/07/28 07:53:37;;;;;;;6.70;5.70;;;24.00;97.20;;;;;;1707053;28;20212;-73
2022/07/28 07:54:27;;;;;;;7.73;5.20;;;24.00;97.20;;;;;;1707132;28;20663;-73
2022/07/28 07:55:19;;;;;;;6.13;5.53;;;24.10;97.20;;;;;;1707224;28;20893;-73
2022/07/28 07:56:10;;;;;;;6.30;5.70;;;24.10;97.20;;;;;;1708330;28;20213;-73
2022/07/28 07:57:02;;;;;;;6.20;5.60;;;24.10;97.20;;;;;;1707967;28;20277;-73
2022/07/28 07:57:54;;;;;;;9.18;5.80;;;24.10;97.20;;;;;;1708133;28;20555;-74
2022/07/28 07:58:44;;;;;;;6.10;5.55;;;24.20;97.20;;;;;;1708495;28;20580;-74
2022/07/28 07:59:36;;;;;;;6.90;6.20;;;24.20;97.20;;;;;;1708315;28;20609;-73
2022/07/28 08:00:27;;;;;;;8.45;6.30;;;24.20;97.20;;;;;;1708324;28;20202;-73
2022/07/28 08:01:19;;;;;;;7.40;5.70;;;24.30;97.20;;;;;;1708312;28;20218;-73
2022/07/28 08:02:10;;;;;;;7.28;5.57;;;24.30;97.20;;;;;;1708321;28;20446;-74
2022/07/28 08:03:01;;;;;;;6.20;5.70;;;24.40;97.20;;;;;;1708235;28;20701;-73
2022/07/28 08:03:52;;;;;;;6.70;6.10;;;24.40;97.20;;;;;;1708275;28;20670;-73
2022/07/28 08:04:44;;;;;;;6.53;5.70;;;24.40;97.20;;;;;;1708230;28;20671;-73
2022/07/28 08:05:35;;;;;;;6.78;6.07;;;24.50;97.20;;;;;;1708249;28;20210;-73
2022/07/28 08:06:28;;;;;;;7.07;6.47;;;24.50;97.20;;;;;;1708223;28;20205;-73
2022/07/28 08:07:19;;;;;;;6.63;5.55;;;24.50;97.20;;;;;;1707978;28;20206;-73
2022/07/28 08:08:10;;;;;;;6.57;5.93;;;24.60;97.20;;;;;;1708106;28;20293;-73
2022/07/28 08:09:01;;;;;;;6.77;6.17;;;24.60;97.20;;;;;;1708021;28;20194;-73
2022/07/28 08:09:53;;;;;;;6.83;6.23;;;24.60;97.20;;;;;;1708159;28;20446;-73
2022/07/28 08:10:44;;;;;;;7.32;6.47;;;24.70;97.20;;;;;;1708309;28;20863;-73
2022/07/28 08:11:36;;;;;;;10.10;6.50;;;24.70;97.20;;;;;;1708237;28;20195;-73
2022/07/28 08:12:26;;;;;;;6.50;5.90;;;24.70;97.20;;;;;;1708139;28;20202;-74
2022/07/28 08:13:20;;;;;;;9.23;5.93;;;24.80;97.20;;;;;;1708210;28;20230;-73
2022/07/28 08:14:11;;;;;;;6.68;6.07;;;24.80;97.20;;;;;;1708317;28;20636;-74
2022/07/28 08:15:03;;;;;;;6.70;6.10;;;24.90;97.20;;;;;;1708266;28;20626;-73
2022/07/28 08:15:54;;;;;;;6.50;5.80;;;24.90;97.20;;;;;;1708149;28;20446;-74
2022/07/28 08:16:46;;;;;;;6.45;5.38;;;24.90;97.20;;;;;;1707904;28;20473;-74
2022/07/28 08:17:38;;;;;;;6.40;5.80;;;25.00;97.20;;;;;;1708173;28;20663;-74
2022/07/28 08:18:28;;;;;;;7.20;5.80;;;25.00;97.20;;;;;;1708136;28;20206;-74
2022/07/28 08:19:20;;;;;;;6.37;5.23;;;25.10;97.20;;;;;;1708250;28;20233;-73
2022/07/28 08:20:11;;;;;;;6.93;6.30;;;25.10;97.20;;;;;;1708202;28;20202;-73
2022/07/28 08:21:03;;;;;;;7.17;6.60;;;25.20;97.20;;;;;;1708242;28;20835;-73
2022/07/28 08:21:55;;;;;;;7.20;6.50;;;25.20;97.20;;;;;;1708130;28;20454;-73
2022/07/28 08:22:48;;;;;;;7.00;6.40;;;25.20;97.20;;;;;;1708100;28;20461;-73
2022/07/28 08:23:39;;;;;;;8.45;6.93;;;25.20;97.20;;;;;;1708150;28;20481;-74
2022/07/28 08:24:31;;;;;;;8.67;7.40;;;25.30;97.20;;;;;;1707914;28;20218;-74
2022/07/28 08:25:23;;;;;;;7.70;6.93;;;25.30;97.20;;;;;;1708023;28;20512;-74
2022/07/28 08:26:14;;;;;;;6.82;6.22;;;25.30;97.20;;;;;;1708063;28;20481;-74
2022/07/28 08:27:05;;;;;;;13.18;7.25;;;25.40;97.20;;;;;;1707774;28;20219;-74
2022/07/28 08:27:57;;;;;;;8.80;6.47;;;25.40;97.20;;;;;;1708088;28;20298;-74
2022/07/28 08:28:48;;;;;;;7.63;6.87;;;25.40;97.20;;;;;;1708075;28;20615;-73
2022/07/28 08:29:39;;;;;;;7.40;6.70;;;25.40;97.20;;;;;;1708138;28;20541;-73
2022/07/28 08:30:30;;;;;;;7.53;6.57;;;25.50;97.20;;;;;;1708076;28;20202;-73
2022/07/28 08:31:22;;;;;;;10.87;6.30;;;25.50;97.20;;;;;;1708185;28;20230;-73
2022/07/28 08:32:13;;;;;;;8.10;7.40;;;25.50;97.20;;;;;;1708073;28;20583;-73
2022/07/28 08:33:04;;;;;;;7.53;6.90;;;25.50;97.20;;;;;;1708076;28;20202;-73
2022/07/28 08:33:57;;;;;;;7.63;6.90;;;25.50;97.20;;;;;;1708081;28;20580;-73
2022/07/28 08:34:49;;;;;;;8.98;7.30;;;25.60;97.20;;;;;;1708128;28;20242;-73
2022/07/28 08:35:40;;;;;;;10.15;6.80;;;25.60;97.20;;;;;;1708164;28;20213;-73
2022/07/28 08:36:32;;;;;;;7.30;6.70;;;25.60;97.20;;;;;;1708011;28;20205;-73
2022/07/28 08:37:24;;;;;;;7.70;6.70;;;25.60;97.20;;;;;;1708041;28;20202;-73
2022/07/28 08:38:16;;;;;;;7.50;6.80;;;25.60;97.20;;;;;;1707982;28;20213;-73
2022/07/28 08:39:06;;;;;;;6.60;5.97;;;25.70;97.20;;;;;;1708161;28;20214;-73
2022/07/28 08:39:58;;;;;;;8.93;7.37;;;25.70;97.20;;;;;;1708082;28;20230;-74
2022/07/28 08:40:52;;;;;;;8.03;7.33;;;25.70;97.20;;;;;;1708074;28;20216;-73
2022/07/28 08:41:49;;;;;;;9.50;6.67;;;25.70;97.20;;;;;;1707738;28;21237;-73
2022/07/28 08:42:48;;;;;;;9.25;6.40;;;25.60;97.20;;;;;;1708133;28;20461;-73
2022/07/28 08:43:42;;;;;;;7.60;6.90;;;25.60;97.20;;;;;;1708010;28;20198;-73
2022/07/28 08:44:47;;;;;;;7.87;6.60;;;25.60;97.20;;;;;;1707975;28;20206;-73
2022/07/28 08:45:38;;;;;;;7.10;6.50;;;25.70;97.20;;;;;;1708089;28;20446;-73
2022/07/28 08:46:35;;;;;;;6.88;6.28;;;25.70;97.20;;;;;;1707866;28;20282;-73
2022/07/28 08:47:28;;;;;;;6.40;5.78;;;25.70;97.20;;;;;;1708096;28;20211;-73
2022/07/28 08:48:22;;;;;;;7.93;7.00;;;25.70;97.20;;;;;;1707828;28;20292;-73
2022/07/28 08:49:15;;;;;;;7.22;6.53;;;25.80;97.20;;;;;;1708036;28;20349;-74
2022/07/28 08:50:07;;;;;;;9.68;6.47;;;25.80;97.20;;;;;;1708054;28;20206;-74
2022/07/28 08:51:01;;;;;;;9.80;6.35;;;25.80;97.20;;;;;;1708005;28;20206;-74
2022/07/28 08:51:55;;;;;;;7.85;6.57;;;25.80;97.20;;;;;;1707982;28;20593;-74
2022/07/28 08:52:49;;;;;;;7.30;6.60;;;25.80;97.20;;;;;;1708008;28;20566;-74
2022/07/28 08:53:43;;;;;;;7.43;6.82;;;25.80;97.20;;;;;;1707915;28;20257;-73
2022/07/28 08:54:34;;;;;;;7.60;6.90;;;25.90;97.20;;;;;;1707963;28;20202;-73
2022/07/28 08:55:27;;;;;;;7.10;6.40;;;25.90;97.20;;;;;;1708014;28;20203;-73
2022/07/28 08:56:19;;;;;;;7.25;6.10;;;25.90;97.20;;;;;;1707891;28;20198;-73
2022/07/28 08:57:16;;;;;;;7.22;6.63;;;25.90;97.20;;;;;;1707489;28;20238;-73
2022/07/28 08:58:08;;;;;;;7.28;6.50;;;26.00;97.20;;;;;;1707657;28;20250;-74
2022/07/28 08:59:00;;;;;;;7.10;6.50;;;26.00;97.20;;;;;;1707910;28;20194;-74
2022/07/28 08:59:51;;;;;;;7.43;6.75;;;26.10;97.20;;;;;;1707903;28;20213;-74
2022/07/28 09:00:43;;;;;;;7.97;7.17;;;26.10;97.20;;;;;;1707991;28;20261;-74
2022/07/28 09:01:35;;;;;;;6.90;6.30;;;26.10;97.20;;;;;;1707959;28;20957;-74
2022/07/28 09:02:28;;;;;;;6.93;6.30;;;26.10;97.20;;;;;;1708007;28;20438;-74
2022/07/28 09:03:19;;;;;;;7.20;6.50;;;26.20;97.20;;;;;;1707833;28;20450;-74
2022/07/28 09:04:12;;;;;;;7.40;6.80;;;26.20;97.20;;;;;;1708044;28;20959;-74
2022/07/28 09:05:03;;;;;;;6.30;5.80;;;26.20;97.20;;;;;;1708007;28;20457;-74
2022/07/28 09:05:56;;;;;;;7.00;6.40;;;26.30;97.20;;;;;;1707812;28;20541;-74
2022/07/28 09:06:47;;;;;;;7.53;6.83;;;26.30;97.20;;;;;;1706941;28;20477;-74
2022/07/28 09:07:41;;;;;;;7.53;6.20;;;26.30;97.20;;;;;;1707299;28;20525;-74
2022/07/28 09:08:33;;;;;;;9.37;7.20;;;26.30;97.20;;;;;;1707796;28;21211;-74
2022/07/28 09:09:25;;;;;;;7.70;6.43;;;26.30;97.20;;;;;;1707842;28;20821;-74
2022/07/28 09:10:17;;;;;;;8.80;6.60;;;26.40;97.20;;;;;;1707854;28;20449;-74
2022/07/28 09:11:09;;;;;;;6.67;6.17;;;26.40;97.20;;;;;;1707890;28;20462;-74
2022/07/28 09:12:04;;;;;;;6.70;6.10;;;26.40;97.20;;;;;;1707839;28;20446;-73
2022/07/28 09:12:56;;;;;;;6.83;6.30;;;26.40;97.20;;;;;;1707846;28;20629;-73
2022/07/28 09:13:46;;;;;;;6.97;6.37;;;26.40;97.20;;;;;;1707872;28;20454;-74
2022/07/28 09:14:38;;;;;;;9.97;6.30;;;26.40;97.20;;;;;;1707586;28;20968;-74
2022/07/28 09:15:29;;;;;;;7.23;6.63;;;26.40;97.20;;;;;;1707911;28;20447;-74
2022/07/28 09:16:21;;;;;;;7.37;6.67;;;26.40;97.20;;;;;;1708016;28;20477;-74
2022/07/28 09:17:12;;;;;;;7.00;6.38;;;26.40;97.20;;;;;;1707514;28;21146;-74
2022/07/28 09:18:04;;;;;;;6.40;5.80;;;26.40;97.20;;;;;;1707032;28;20625;-73
2022/07/28 09:18:55;;;;;;;6.67;6.13;;;26.40;97.20;;;;;;1707797;28;20442;-73
2022/07/28 09:19:47;;;;;;;6.60;6.00;;;26.50;97.20;;;;;;1707793;28;20533;-74
2022/07/28 09:20:38;;;;;;;8.10;7.27;;;26.50;97.20;;;;;;1707945;28;20560;-74
2022/07/28 09:21:30;;;;;;;6.33;5.80;;;26.50;97.20;;;;;;1707756;28;20822;-73
2022/07/28 09:22:21;;;;;;;9.57;6.33;;;26.50;97.20;;;;;;1707798;28;20824;-73
2022/07/28 09:23:13;;;;;;;6.70;6.10;;;26.50;97.20;;;;;;1707581;28;20985;-73
2022/07/28 09:24:06;;;;;;;6.50;5.90;;;26.50;97.20;;;;;;1707897;28;20914;-73
2022/07/28 09:24:59;;;;;;;6.83;6.23;;;26.60;97.20;;;;;;1707763;28;20457;-73
2022/07/28 09:26:05;;;;;;;7.30;6.10;;;26.60;97.20;;;;;;1707655;28;20457;-74
2022/07/28 09:26:59;;;;;;;6.90;6.20;;;26.60;97.20;;;;;;1707478;28;20462;-74
2022/07/28 09:27:51;;;;;;;9.30;5.97;;;26.60;97.20;;;;;;1707641;28;20457;-74
2022/07/28 09:28:47;;;;;;;6.77;6.20;;;26.60;97.20;;;;;;1707795;28;20543;-73
2022/07/28 09:29:40;;;;;;;8.30;6.20;;;26.70;97.20;;;;;;1707791;28;20454;-73
2022/07/28 09:30:33;;;;;;;7.27;5.83;;;26.70;97.20;;;;;;1707452;28;20453;-73